createdAt,value
2018-12-07T00:02:14.705Z,9.80
2018-12-07T00:04:42.221Z,9.80
2018-12-07T00:07:09.723Z,9.70
2018-12-07T00:09:37.229Z,9.70
2018-12-07T00:12:04.743Z,9.70
2018-12-07T00:14:32.252Z,9.70
2018-12-07T00:16:59.758Z,9.70
2018-12-07T00:19:27.511Z,9.70
2018-12-07T00:21:55.028Z,9.60
2018-12-07T00:24:22.541Z,9.60
2018-12-07T00:26:50.046Z,9.50
2018-12-07T00:29:17.566Z,9.60
2018-12-07T00:31:45.072Z,9.50
2018-12-07T00:34:12.576Z,9.40
2018-12-07T00:36:40.087Z,9.40
2018-12-07T00:39:07.653Z,9.40
2018-12-07T00:41:35.141Z,9.30
2018-12-07T00:44:02.704Z,9.30
2018-12-07T00:46:30.453Z,9.30
2018-12-07T00:48:57.986Z,9.30
2018-12-07T00:51:25.515Z,9.30
2018-12-07T00:53:53.013Z,9.20
2018-12-07T00:56:20.527Z,9.20
2018-12-07T00:58:48.035Z,9.20
2018-12-07T01:01:15.530Z,9.30
2018-12-07T01:03:43.031Z,9.30
2018-12-07T01:06:10.534Z,9.30
2018-12-07T01:08:38.028Z,9.30
2018-12-07T01:11:05.584Z,9.30
2018-12-07T01:13:33.198Z,9.30
2018-12-07T01:16:00.706Z,9.40
2018-12-07T01:18:28.477Z,9.40
2018-12-07T01:20:56.168Z,9.40
2018-12-07T01:23:23.672Z,9.40
2018-12-07T01:25:51.183Z,9.50
2018-12-07T01:28:19.006Z,9.50
2018-12-07T01:30:46.525Z,9.50
2018-12-07T01:33:14.023Z,9.50
2018-12-07T01:35:41.526Z,9.60
2018-12-07T01:38:09.028Z,9.50
2018-12-07T01:40:36.528Z,9.60
2018-12-07T01:43:04.071Z,9.50
2018-12-07T01:45:31.588Z,9.50
2018-12-07T01:47:59.077Z,9.60
2018-12-07T01:50:26.575Z,9.60
2018-12-07T01:52:54.077Z,9.50
2018-12-07T01:55:21.939Z,9.50
2018-12-07T01:57:49.431Z,9.60
2018-12-07T02:00:16.941Z,9.50
2018-12-07T02:02:44.504Z,9.50
2018-12-07T02:05:12.076Z,9.40
2018-12-07T02:07:39.571Z,9.40
2018-12-07T02:10:07.228Z,9.40
2018-12-07T02:12:34.804Z,9.40
2018-12-07T02:15:02.314Z,9.40
2018-12-07T02:17:29.819Z,9.40
2018-12-07T02:19:57.326Z,9.50
2018-12-07T02:22:24.824Z,9.40
2018-12-07T02:24:52.318Z,9.40
2018-12-07T02:27:19.819Z,9.30
2018-12-07T02:29:47.306Z,9.30
2018-12-07T02:32:14.844Z,9.20
2018-12-07T02:34:42.324Z,9.30
2018-12-07T02:37:09.837Z,9.20
2018-12-07T02:39:37.348Z,9.30
2018-12-07T02:42:04.859Z,9.30
2018-12-07T02:44:32.363Z,9.30
2018-12-07T02:46:59.874Z,9.30
2018-12-07T02:49:27.396Z,9.30
2018-12-07T02:51:54.884Z,9.30
2018-12-07T02:54:22.372Z,9.40
2018-12-07T02:56:49.885Z,9.40
2018-12-07T02:59:17.595Z,9.40
2018-12-07T03:01:45.098Z,9.40
2018-12-07T03:04:12.594Z,9.30
2018-12-07T03:06:40.159Z,9.30
2018-12-07T03:09:07.708Z,9.30
2018-12-07T03:11:35.342Z,9.30
2018-12-07T03:14:02.957Z,9.30
2018-12-07T03:16:30.561Z,9.30
2018-12-07T03:18:58.072Z,9.30
2018-12-07T03:21:25.564Z,9.40
2018-12-07T03:23:53.062Z,9.40
2018-12-07T03:26:20.622Z,9.40
2018-12-07T03:28:48.115Z,9.30
2018-12-07T03:31:15.628Z,9.30
2018-12-07T03:33:43.136Z,9.30
2018-12-07T03:36:10.735Z,9.30
2018-12-07T03:38:38.244Z,9.30
2018-12-07T03:41:05.910Z,9.30
2018-12-07T03:43:33.403Z,9.30
2018-12-07T03:46:00.899Z,9.20
2018-12-07T03:48:28.395Z,9.20
2018-12-07T03:50:55.897Z,9.20
2018-12-07T03:53:23.410Z,9.10
2018-12-07T03:55:50.922Z,9.10
2018-12-07T03:58:18.421Z,9.10
2018-12-07T04:00:46.297Z,9.10
2018-12-07T04:03:13.792Z,9.10
2018-12-07T04:05:41.324Z,9.10
2018-12-07T04:08:08.899Z,9.10
2018-12-07T04:10:36.494Z,9.10
2018-12-07T04:13:04.096Z,9.10
2018-12-07T04:15:31.810Z,9.10
2018-12-07T04:17:59.345Z,9.20
2018-12-07T04:20:26.940Z,9.20
2018-12-07T04:22:54.490Z,9.20
2018-12-07T04:25:22.224Z,9.20
2018-12-07T04:27:49.729Z,9.30
2018-12-07T04:30:22.620Z,9.30
2018-12-07T04:32:50.258Z,9.30
2018-12-07T04:35:17.827Z,9.40
2018-12-07T04:37:45.433Z,9.40
2018-12-07T04:40:13.161Z,9.50
2018-12-07T04:42:40.734Z,9.60
2018-12-07T04:45:08.356Z,9.60
2018-12-07T04:47:35.878Z,9.70
2018-12-07T04:50:03.806Z,9.70
2018-12-07T04:52:31.302Z,9.70
2018-12-07T04:54:58.798Z,9.80
2018-12-07T04:57:26.301Z,9.90
2018-12-07T04:59:54.041Z,9.90
2018-12-07T05:02:21.560Z,10.00
2018-12-07T05:04:49.148Z,10.00
2018-12-07T05:07:16.655Z,10.00
2018-12-07T05:09:44.159Z,10.10
2018-12-07T05:12:11.672Z,10.10
2018-12-07T05:14:39.173Z,10.10
2018-12-07T05:17:06.686Z,10.10
2018-12-07T05:19:34.189Z,10.20
2018-12-07T05:22:01.759Z,10.20
2018-12-07T05:24:29.281Z,10.20
2018-12-07T05:26:57.219Z,10.20
2018-12-07T05:29:24.741Z,10.20
2018-12-07T05:31:52.561Z,10.20
2018-12-07T05:34:20.060Z,10.10
2018-12-07T05:36:47.579Z,10.10
2018-12-07T05:39:15.153Z,10.20
2018-12-07T05:41:42.664Z,10.20
2018-12-07T05:44:10.159Z,10.20
2018-12-07T05:46:37.681Z,10.20
2018-12-07T05:49:05.196Z,10.20
2018-12-07T05:51:32.714Z,10.20
2018-12-07T05:54:00.534Z,10.20
2018-12-07T05:56:28.149Z,10.20
2018-12-07T05:58:55.667Z,10.20
2018-12-07T06:01:23.245Z,10.20
2018-12-07T06:03:51.121Z,10.10
2018-12-07T06:06:18.713Z,10.10
2018-12-07T06:08:46.223Z,10.00
2018-12-07T06:11:13.743Z,10.00
2018-12-07T06:13:41.235Z,9.90
2018-12-07T06:16:08.799Z,9.90
2018-12-07T06:18:36.567Z,9.90
2018-12-07T06:21:04.094Z,9.80
2018-12-07T06:23:31.610Z,9.80
2018-12-07T06:25:59.113Z,9.70
2018-12-07T06:28:26.623Z,9.70
2018-12-07T06:30:54.124Z,9.60
2018-12-07T06:33:21.682Z,9.60
2018-12-07T06:35:49.538Z,9.60
2018-12-07T06:38:17.047Z,9.60
2018-12-07T06:40:44.576Z,9.50
2018-12-07T06:43:12.081Z,9.50
2018-12-07T06:45:39.588Z,9.40
2018-12-07T06:48:07.095Z,9.40
2018-12-07T06:50:34.620Z,9.30
2018-12-07T06:53:02.136Z,9.40
2018-12-07T06:55:29.635Z,9.30
2018-12-07T06:57:57.149Z,9.30
2018-12-07T07:00:24.652Z,9.20
2018-12-07T07:02:52.352Z,9.20
2018-12-07T07:05:19.861Z,9.20
2018-12-07T07:07:47.382Z,9.10
2018-12-07T07:10:14.890Z,9.10
2018-12-07T07:12:42.383Z,9.00
2018-12-07T07:15:09.960Z,9.00
2018-12-07T07:17:37.463Z,9.00
2018-12-07T07:20:06.534Z,9.00
2018-12-07T07:22:34.049Z,8.90
2018-12-07T07:25:01.561Z,8.90
2018-12-07T07:27:29.066Z,8.90
2018-12-07T07:29:56.578Z,8.90
2018-12-07T07:32:24.110Z,8.90
2018-12-07T07:34:51.607Z,8.90
2018-12-07T07:37:19.113Z,8.90
2018-12-07T07:39:46.625Z,8.90
2018-12-07T07:42:14.199Z,8.90
2018-12-07T07:44:41.707Z,8.90
2018-12-07T07:47:09.217Z,8.90
2018-12-07T07:49:36.754Z,8.90
2018-12-07T07:52:04.342Z,8.90
2018-12-07T07:54:31.853Z,9.00
2018-12-07T07:56:59.361Z,9.00
2018-12-07T07:59:26.875Z,9.00
2018-12-07T08:01:54.750Z,9.00
2018-12-07T08:04:22.250Z,9.10
2018-12-07T08:06:49.746Z,9.10
2018-12-07T08:11:58.049Z,9.20
2018-12-07T08:14:25.580Z,9.30
2018-12-07T08:16:53.362Z,9.30
2018-12-07T08:19:20.861Z,9.40
2018-12-07T08:21:48.344Z,9.40
2018-12-07T08:24:15.903Z,9.50
2018-12-07T08:26:43.413Z,9.60
2018-12-07T08:29:10.919Z,9.70
2018-12-07T08:31:38.431Z,9.80
2018-12-07T08:34:05.945Z,9.90
2018-12-07T08:36:33.449Z,9.90
2018-12-07T08:39:01.039Z,10.00
2018-12-07T08:41:28.530Z,10.10
2018-12-07T08:43:56.045Z,10.10
2018-12-07T08:46:23.570Z,10.20
2018-12-07T08:48:51.078Z,10.20
2018-12-07T08:51:18.610Z,10.30
2018-12-07T08:53:46.106Z,10.30
2018-12-07T08:56:13.608Z,10.40
2018-12-07T08:58:41.120Z,10.40
2018-12-07T09:01:08.878Z,10.40
2018-12-07T09:03:36.448Z,10.40
2018-12-07T09:06:04.038Z,10.50
2018-12-07T09:08:31.804Z,10.50
2018-12-07T09:10:59.302Z,10.50
2018-12-07T09:13:26.815Z,10.60
2018-12-07T09:15:54.535Z,10.60
2018-12-07T09:18:22.043Z,10.60
2018-12-07T09:20:53.934Z,10.70
2018-12-07T09:23:19.099Z,10.70
2018-12-07T09:25:46.607Z,10.80
2018-12-07T09:28:14.093Z,10.90
2018-12-07T09:30:41.617Z,11.00
2018-12-07T09:33:09.209Z,11.10
2018-12-07T09:35:36.711Z,11.10
2018-12-07T09:38:04.280Z,11.20
2018-12-07T09:40:32.014Z,11.30
2018-12-07T09:42:59.513Z,11.40
2018-12-07T09:45:27.020Z,11.40
2018-12-07T09:47:54.518Z,11.40
2018-12-07T09:50:22.045Z,11.40
2018-12-07T09:52:49.604Z,11.50
2018-12-07T09:55:17.130Z,11.40
2018-12-07T09:57:44.644Z,11.40
2018-12-07T10:00:12.146Z,11.40
2018-12-07T10:02:39.647Z,11.40
2018-12-07T10:05:07.313Z,11.40
2018-12-07T10:07:34.827Z,11.60
2018-12-07T10:10:02.486Z,11.80
2018-12-07T10:12:29.988Z,11.90
2018-12-07T10:14:57.501Z,12.10
2018-12-07T10:17:25.007Z,12.20
2018-12-07T10:19:52.524Z,12.30
2018-12-07T10:22:20.020Z,12.50
2018-12-07T10:24:47.530Z,12.70
2018-12-07T10:27:15.043Z,13.10
2018-12-07T10:29:42.552Z,13.60
2018-12-07T10:32:10.070Z,13.70
2018-12-07T10:34:37.608Z,13.60
2018-12-07T10:37:05.098Z,13.40
2018-12-07T10:39:32.616Z,13.20
2018-12-07T10:42:00.114Z,13.00
2018-12-07T10:44:27.866Z,13.00
2018-12-07T10:46:55.460Z,12.80
2018-12-07T10:49:22.971Z,12.70
2018-12-07T10:51:50.482Z,12.60
2018-12-07T10:54:17.985Z,12.50
2018-12-07T10:56:45.505Z,12.50
2018-12-07T10:59:13.003Z,12.40
2018-12-07T11:01:47.063Z,12.40
2018-12-07T11:04:20.251Z,12.40
2018-12-07T11:06:48.336Z,12.50
2018-12-07T11:09:21.579Z,12.50
2018-12-07T11:11:51.195Z,12.60
2018-12-07T11:17:24.737Z,12.60
2018-12-07T11:19:57.913Z,12.50
2018-12-07T11:22:31.252Z,12.50
2018-12-07T11:28:08.784Z,12.50
2018-12-07T11:30:41.870Z,12.50
2018-12-07T11:33:15.032Z,12.50
2018-12-07T11:35:42.546Z,12.60
2018-12-07T11:38:10.115Z,12.70
2018-12-07T11:40:37.616Z,12.70
2018-12-07T11:43:05.348Z,12.70
2018-12-07T11:45:32.862Z,12.80
2018-12-07T11:48:00.367Z,12.80
2018-12-07T11:50:27.886Z,12.80
2018-12-07T11:52:55.418Z,12.80
2018-12-07T11:55:22.939Z,12.90
2018-12-07T11:57:50.444Z,12.90
2018-12-07T12:00:18.045Z,12.90
2018-12-07T12:02:45.550Z,12.90
2018-12-07T12:05:13.069Z,12.90
2018-12-07T12:07:40.590Z,12.90
2018-12-07T12:10:08.908Z,12.90
2018-12-07T12:12:36.417Z,12.90
2018-12-07T12:15:05.291Z,12.80
2018-12-07T12:17:32.782Z,12.80
2018-12-07T12:20:00.286Z,12.80
2018-12-07T12:22:27.796Z,12.70
2018-12-07T12:24:55.310Z,12.70
2018-12-07T12:27:22.831Z,12.70
2018-12-07T12:29:50.335Z,12.70
2018-12-07T12:58:24.754Z,12.70
2018-12-07T13:00:58.144Z,12.70
2018-12-07T13:03:31.313Z,12.70
2018-12-07T13:06:04.556Z,12.80
2018-12-07T13:08:32.058Z,12.70
2018-12-07T13:10:59.561Z,12.80
2018-12-07T13:13:27.070Z,12.80
2018-12-07T13:15:54.563Z,12.80
2018-12-07T13:18:22.074Z,12.80
2018-12-07T13:20:49.590Z,12.90
2018-12-07T13:23:17.135Z,12.90
2018-12-07T13:25:44.633Z,12.90
2018-12-07T13:28:12.154Z,13.00
2018-12-07T13:30:39.667Z,13.00
2018-12-07T13:33:07.319Z,13.00
2018-12-07T13:35:34.813Z,13.00
2018-12-07T13:38:02.327Z,12.90
2018-12-07T13:40:29.973Z,12.80
2018-12-07T13:42:57.794Z,12.80
2018-12-07T13:45:25.571Z,12.70
2018-12-07T13:47:53.428Z,12.70
2018-12-07T13:50:26.897Z,12.60
2018-12-07T13:52:54.667Z,12.60
2018-12-07T13:55:22.318Z,12.50
2018-12-07T13:57:50.104Z,12.50
2018-12-07T14:00:17.910Z,12.50
2018-12-07T14:02:45.676Z,12.50
2018-12-07T14:05:13.495Z,12.40
2018-12-07T14:07:41.066Z,12.40
2018-12-07T14:10:08.836Z,12.40
2018-12-07T14:12:36.517Z,12.40
2018-12-07T14:15:04.964Z,12.30
2018-12-07T14:17:32.535Z,12.30
2018-12-07T14:20:00.242Z,12.30
2018-12-07T14:22:27.947Z,12.30
2018-12-07T14:24:55.655Z,12.20
2018-12-07T14:27:23.646Z,12.20
2018-12-07T14:29:51.266Z,12.20
2018-12-07T14:32:19.012Z,12.20
2018-12-07T14:34:46.664Z,12.20
2018-12-07T14:37:14.360Z,12.10
2018-12-07T14:39:41.993Z,12.10
2018-12-07T14:42:09.822Z,12.00
2018-12-07T14:44:37.555Z,12.00
2018-12-07T14:47:05.084Z,12.00
2018-12-07T14:49:34.529Z,12.00
2018-12-07T14:52:02.691Z,11.90
2018-12-07T14:54:30.279Z,11.90
2018-12-07T14:56:58.093Z,12.40
2018-12-07T14:59:25.762Z,12.30
2018-12-07T15:01:53.578Z,12.20
2018-12-07T15:04:21.292Z,12.00
2018-12-07T15:06:48.833Z,11.80
2018-12-07T15:09:16.336Z,11.70
2018-12-07T15:11:43.923Z,11.60
2018-12-07T15:14:11.680Z,11.50
2018-12-07T15:16:39.388Z,11.40
2018-12-07T15:19:07.009Z,11.30
2018-12-07T15:21:34.719Z,11.20
2018-12-07T15:24:02.419Z,11.10
2018-12-07T15:26:31.153Z,11.00
2018-12-07T15:28:58.806Z,10.90
2018-12-07T15:31:26.454Z,10.90
2018-12-07T15:33:54.203Z,10.80
2018-12-07T15:36:21.881Z,10.70
2018-12-07T15:38:49.709Z,10.60
2018-12-07T15:41:17.325Z,10.50
2018-12-07T15:43:44.995Z,10.40
2018-12-07T15:46:12.687Z,10.30
2018-12-07T15:48:40.451Z,10.30
2018-12-07T15:51:08.191Z,10.20
2018-12-07T15:53:35.990Z,10.20
2018-12-07T15:56:03.799Z,10.20
2018-12-07T15:58:31.524Z,10.20
2018-12-07T16:00:59.178Z,10.20
2018-12-07T16:03:26.683Z,10.20
2018-12-07T16:05:54.396Z,10.10
2018-12-07T16:08:25.112Z,10.00
2018-12-07T16:10:53.123Z,10.00
2018-12-07T16:13:21.405Z,9.90
2018-12-07T16:15:49.278Z,9.90
2018-12-07T16:18:17.136Z,9.80
2018-12-07T16:20:44.897Z,9.80
2018-12-07T16:23:12.535Z,9.80
2018-12-07T16:25:40.182Z,9.70
2018-12-07T16:28:07.890Z,9.70
2018-12-07T16:30:35.499Z,9.70
2018-12-07T16:33:03.086Z,9.70
2018-12-07T16:35:31.214Z,9.70
2018-12-07T16:37:58.771Z,9.70
2018-12-07T16:40:26.447Z,9.70
2018-12-07T16:42:54.400Z,9.70
2018-12-07T16:45:22.164Z,9.70
2018-12-07T16:47:50.125Z,9.70
2018-12-07T16:50:17.649Z,9.60
2018-12-07T16:52:46.041Z,9.60
2018-12-07T16:55:14.043Z,9.70
2018-12-07T16:57:41.878Z,9.70
2018-12-07T17:00:10.047Z,9.70
2018-12-07T17:02:38.290Z,9.70
2018-12-07T17:05:07.413Z,9.60
2018-12-07T17:07:34.983Z,9.60
2018-12-07T17:10:03.007Z,9.60
2018-12-07T17:12:30.695Z,9.60
2018-12-07T17:14:58.249Z,9.60
2018-12-07T17:17:25.942Z,9.50
2018-12-07T17:19:53.619Z,9.50
2018-12-07T17:22:21.484Z,9.50
2018-12-07T17:24:49.722Z,9.50
2018-12-07T17:27:17.539Z,9.50
2018-12-07T17:29:45.482Z,9.50
2018-12-07T17:32:13.326Z,9.40
2018-12-07T17:34:41.103Z,9.40
2018-12-07T17:37:08.799Z,9.40
2018-12-07T17:39:36.396Z,9.30
2018-12-07T17:42:03.988Z,9.30
2018-12-07T17:44:31.648Z,9.30
2018-12-07T17:46:59.476Z,9.20
2018-12-07T17:49:27.293Z,9.10
2018-12-07T17:51:55.294Z,9.10
2018-12-07T17:54:23.075Z,9.00
2018-12-07T17:56:51.123Z,9.00
2018-12-07T17:59:19.629Z,9.00
2018-12-07T18:01:47.333Z,9.00
2018-12-07T18:04:14.836Z,9.00
2018-12-07T18:06:42.554Z,8.90
2018-12-07T18:09:10.287Z,8.90
2018-12-07T18:11:37.880Z,8.80
2018-12-07T18:14:05.447Z,8.80
2018-12-07T18:16:33.035Z,8.80
2018-12-07T18:19:01.231Z,8.70
2018-12-07T18:21:28.824Z,8.60
2018-12-07T18:23:56.570Z,8.50
2018-12-07T18:26:24.397Z,8.40
2018-12-07T18:28:52.343Z,8.40
2018-12-07T18:31:20.004Z,8.30
2018-12-07T18:33:47.753Z,8.30
2018-12-07T18:36:15.339Z,8.30
2018-12-07T18:38:43.042Z,8.30
2018-12-07T18:41:10.927Z,8.30
2018-12-07T18:43:38.899Z,8.30
2018-12-07T18:46:06.676Z,8.20
2018-12-07T18:48:34.246Z,8.30
2018-12-07T18:51:01.937Z,8.30
2018-12-07T18:53:29.824Z,8.30
2018-12-07T18:55:57.724Z,8.30
2018-12-07T18:58:25.578Z,8.30
2018-12-07T19:00:53.325Z,8.30
2018-12-07T19:03:21.164Z,8.20
2018-12-07T19:05:49.163Z,8.10
2018-12-07T19:08:17.047Z,8.10
2018-12-07T19:10:44.672Z,8.10
2018-12-07T19:13:12.603Z,8.10
2018-12-07T19:15:40.123Z,8.20
2018-12-07T19:18:07.754Z,8.20
2018-12-07T19:20:35.286Z,8.20
2018-12-07T19:23:02.891Z,8.20
2018-12-07T19:25:30.743Z,8.20
2018-12-07T19:27:58.979Z,8.20
2018-12-07T19:30:26.656Z,8.20
2018-12-07T19:32:55.207Z,8.20
2018-12-07T19:35:24.268Z,8.10
2018-12-07T19:37:51.963Z,8.10
2018-12-07T19:40:19.682Z,8.10
2018-12-07T19:42:47.577Z,8.10
2018-12-07T19:45:15.252Z,8.10
2018-12-07T19:47:42.979Z,8.10
2018-12-07T19:50:10.912Z,8.10
2018-12-07T19:52:38.586Z,8.10
2018-12-07T19:55:06.800Z,8.10
2018-12-07T19:57:34.766Z,8.10
2018-12-07T20:00:02.490Z,8.10
2018-12-07T20:02:30.200Z,8.10
2018-12-07T20:04:58.130Z,8.10
2018-12-07T20:07:25.654Z,8.10
2018-12-07T20:09:53.455Z,8.00
2018-12-07T20:12:22.046Z,8.00
2018-12-07T20:14:50.315Z,8.00
2018-12-07T20:17:19.066Z,8.00
2018-12-07T20:19:46.807Z,8.10
2018-12-07T20:22:14.576Z,8.10
2018-12-07T20:24:42.263Z,8.20
2018-12-07T20:27:10.545Z,8.30
2018-12-07T20:29:38.181Z,8.30
2018-12-07T20:32:05.890Z,8.40
2018-12-07T20:34:33.528Z,8.40
2018-12-07T20:37:01.370Z,8.50
2018-12-07T20:39:29.056Z,8.50
2018-12-07T20:41:56.603Z,8.50
2018-12-07T20:44:24.153Z,8.60
2018-12-07T20:46:52.019Z,8.60
2018-12-07T20:49:19.895Z,8.60
2018-12-07T20:51:50.429Z,8.60
2018-12-07T20:54:18.220Z,8.70
2018-12-07T20:56:46.143Z,8.80
2018-12-07T20:59:13.945Z,8.80
2018-12-07T21:01:41.608Z,8.80
2018-12-07T21:04:31.467Z,8.90
2018-12-07T21:13:40.924Z,9.00
2018-12-07T21:19:25.753Z,9.30
2018-12-07T21:21:53.768Z,9.50
2018-12-07T21:24:21.389Z,9.60
2018-12-07T21:26:49.341Z,9.70
2018-12-07T21:29:17.191Z,9.70
2018-12-07T21:31:45.765Z,9.80
2018-12-07T21:37:20.655Z,9.80
2018-12-07T21:39:48.711Z,9.80
2018-12-07T21:42:18.278Z,9.80
2018-12-07T21:44:46.120Z,9.80
2018-12-07T21:47:13.827Z,9.90
2018-12-07T21:49:41.676Z,9.80
2018-12-07T21:52:13.323Z,9.90
2018-12-07T21:54:41.280Z,9.90
2018-12-07T21:57:09.168Z,9.90
2018-12-07T21:59:36.900Z,9.90
2018-12-07T22:02:04.602Z,9.90
2018-12-07T22:04:32.423Z,9.90
2018-12-07T22:07:00.327Z,9.90
2018-12-07T22:09:28.169Z,9.90
2018-12-07T22:11:55.769Z,9.90
2018-12-07T22:14:23.388Z,9.90
2018-12-07T22:16:50.943Z,9.90
2018-12-07T22:19:18.552Z,9.80
2018-12-07T22:21:46.721Z,9.80
2018-12-07T22:24:14.642Z,9.80
2018-12-07T22:26:42.154Z,9.90
2018-12-07T22:29:10.196Z,9.90
2018-12-07T22:31:37.980Z,9.90
2018-12-07T22:34:05.706Z,9.90
2018-12-07T22:36:33.918Z,9.90
2018-12-07T22:39:02.024Z,9.90
2018-12-07T22:41:29.967Z,9.90
2018-12-07T22:43:57.559Z,9.90
2018-12-07T22:46:25.143Z,9.90
2018-12-07T22:48:52.874Z,9.80
2018-12-07T22:51:22.623Z,9.80
2018-12-07T22:53:50.148Z,9.80
2018-12-07T22:56:17.643Z,9.70
2018-12-07T22:58:45.151Z,9.70
2018-12-07T23:01:13.215Z,9.70
2018-12-07T23:03:40.802Z,9.60
2018-12-07T23:06:08.310Z,9.60
2018-12-07T23:08:35.839Z,9.60
2018-12-07T23:11:03.350Z,9.60
2018-12-07T23:13:30.854Z,9.60
2018-12-07T23:15:58.581Z,9.60
2018-12-07T23:18:26.254Z,9.60
2018-12-07T23:20:53.768Z,9.60
2018-12-07T23:23:21.268Z,9.60
2018-12-07T23:25:49.053Z,9.60
2018-12-07T23:28:19.570Z,9.60
2018-12-07T23:30:46.105Z,9.60
2018-12-07T23:33:13.613Z,9.60
2018-12-07T23:35:41.132Z,9.40
2018-12-07T23:38:08.943Z,9.30
2018-12-07T23:40:36.457Z,9.20
2018-12-07T23:43:06.613Z,9.00
2018-12-07T23:45:34.412Z,9.00
2018-12-07T23:48:01.999Z,8.90
2018-12-07T23:50:29.512Z,8.80
2018-12-07T23:52:57.030Z,8.70
2018-12-07T23:55:24.556Z,8.70
2018-12-07T23:57:52.079Z,8.60
